createdAt,value
2023-03-02T00:01:41.689Z,2.85
2023-03-02T00:04:13.810Z,2.08
2023-03-02T00:06:41.245Z,2.10
2023-03-02T00:09:08.262Z,2.40
2023-03-02T00:11:38.287Z,5.57
2023-03-02T00:14:06.015Z,2.72
2023-03-02T00:16:34.281Z,5.57
2023-03-02T00:19:01.652Z,3.75
2023-03-02T00:21:28.784Z,4.53
2023-03-02T00:23:55.741Z,4.00
2023-03-02T00:26:22.707Z,3.97
2023-03-02T00:28:50.089Z,3.75
2023-03-02T00:31:17.220Z,1.77
2023-03-02T00:33:44.289Z,2.95
2023-03-02T00:36:19.065Z,3.17
2023-03-02T00:38:46.227Z,2.90
2023-03-02T00:41:14.372Z,4.95
2023-03-02T00:43:41.469Z,2.92
2023-03-02T00:46:14.111Z,2.78
2023-03-02T00:48:41.304Z,3.17
2023-03-02T00:51:08.775Z,2.95
2023-03-02T00:53:36.769Z,4.18
2023-03-02T00:56:04.835Z,2.70
2023-03-02T00:58:32.667Z,4.30
2023-03-02T01:01:04.564Z,3.83
2023-03-02T01:03:31.730Z,3.85
2023-03-02T01:05:58.843Z,3.65
2023-03-02T01:08:25.876Z,4.55
2023-03-02T01:10:54.336Z,3.08
2023-03-02T01:13:21.498Z,6.80
2023-03-02T01:15:48.782Z,4.07
2023-03-02T01:18:15.867Z,2.65
2023-03-02T01:20:42.857Z,5.22
2023-03-02T01:23:10.044Z,4.18
2023-03-02T01:25:39.224Z,3.78
2023-03-02T01:28:06.252Z,4.65
2023-03-02T01:30:33.486Z,3.90
2023-03-02T01:33:00.427Z,3.60
2023-03-02T01:35:27.413Z,2.58
2023-03-02T01:37:54.502Z,5.93
2023-03-02T01:40:21.427Z,3.72
2023-03-02T01:42:56.901Z,3.42
2023-03-02T01:45:45.835Z,2.88
2023-03-02T01:48:15.758Z,5.20
2023-03-02T01:50:42.868Z,3.15
2023-03-02T01:53:09.901Z,3.05
2023-03-02T01:55:39.185Z,2.85
2023-03-02T01:58:07.138Z,5.05
2023-03-02T02:00:38.259Z,3.15
2023-03-02T02:03:16.684Z,4.45
2023-03-02T02:05:46.642Z,4.95
2023-03-02T02:08:14.090Z,4.57
2023-03-02T02:10:41.411Z,3.65
2023-03-02T02:13:11.753Z,2.97
2023-03-02T02:15:40.661Z,2.70
2023-03-02T02:18:07.908Z,5.25
2023-03-02T02:20:45.427Z,9.70
2023-03-02T02:23:33.980Z,4.15
2023-03-02T02:26:13.271Z,2.30
2023-03-02T02:28:45.427Z,3.38
2023-03-02T02:31:18.357Z,4.68
2023-03-02T02:33:49.948Z,4.18
2023-03-02T02:38:50.248Z,3.95
2023-03-02T02:41:24.902Z,3.92
2023-03-02T02:43:52.174Z,2.97
2023-03-02T02:46:19.414Z,3.67
2023-03-02T02:48:46.463Z,2.83
2023-03-02T02:51:20.536Z,3.80
2023-03-02T02:53:47.506Z,3.20
2023-03-02T02:56:15.798Z,2.92
2023-03-02T02:58:42.766Z,2.63
2023-03-02T03:01:14.098Z,2.38
2023-03-02T03:03:49.341Z,3.75
2023-03-02T03:06:23.539Z,3.53
2023-03-02T03:08:57.751Z,3.88
2023-03-02T03:11:30.579Z,2.55
2023-03-02T03:14:06.098Z,3.35
2023-03-02T03:16:34.535Z,4.30
2023-03-02T03:19:23.507Z,2.15
2023-03-02T03:21:53.854Z,2.97
2023-03-02T03:24:21.607Z,1.63
2023-03-02T03:26:49.092Z,3.05
2023-03-02T03:29:17.341Z,2.15
2023-03-02T03:31:44.651Z,3.17
2023-03-02T03:34:11.723Z,4.72
2023-03-02T03:36:38.749Z,3.30
2023-03-02T03:39:06.650Z,4.28
2023-03-02T03:41:34.093Z,2.83
2023-03-02T03:44:01.229Z,2.38
2023-03-02T03:46:28.361Z,2.80
2023-03-02T03:48:55.687Z,3.10
2023-03-02T03:51:23.244Z,3.53
2023-03-02T03:54:00.136Z,2.28
2023-03-02T03:56:28.876Z,2.47
2023-03-02T03:59:06.406Z,4.15
2023-03-02T04:01:51.844Z,1.65
2023-03-02T04:04:25.024Z,4.03
2023-03-02T04:06:52.288Z,3.53
2023-03-02T04:09:19.703Z,4.13
2023-03-02T04:11:53.830Z,3.08
2023-03-02T04:14:25.593Z,3.83
2023-03-02T04:16:52.956Z,3.47
2023-03-02T04:19:20.163Z,3.75
2023-03-02T04:21:52.859Z,3.17
2023-03-02T04:24:23.199Z,3.05
2023-03-02T04:26:50.919Z,3.03
2023-03-02T04:29:18.616Z,3.40
2023-03-02T04:31:45.780Z,6.72
2023-03-02T04:34:12.760Z,4.38
2023-03-02T04:36:41.038Z,3.40
2023-03-02T04:39:08.506Z,4.57
2023-03-02T04:41:36.006Z,2.60
2023-03-02T04:44:03.226Z,4.40
2023-03-02T04:46:30.435Z,2.63
2023-03-02T04:48:57.687Z,4.47
2023-03-02T04:51:28.706Z,3.08
2023-03-02T04:53:59.600Z,3.05
2023-03-02T04:56:26.950Z,2.30
2023-03-02T04:58:53.990Z,2.08
2023-03-02T05:01:21.574Z,2.05
2023-03-02T05:03:49.391Z,7.28
2023-03-02T05:06:16.942Z,2.83
2023-03-02T05:08:44.798Z,2.42
2023-03-02T05:11:24.892Z,3.75
2023-03-02T05:13:55.016Z,6.57
2023-03-02T05:16:23.034Z,3.05
2023-03-02T05:18:50.191Z,3.33
2023-03-02T05:21:19.007Z,5.05
2023-03-02T05:23:46.605Z,3.45
2023-03-02T05:26:14.353Z,3.10
2023-03-02T05:28:43.503Z,4.25
2023-03-02T05:31:18.296Z,3.58
2023-03-02T05:33:46.495Z,4.47
2023-03-02T05:36:13.533Z,4.50
2023-03-02T05:38:40.528Z,4.35
2023-03-02T05:41:07.794Z,3.33
2023-03-02T05:43:34.851Z,3.10
2023-03-02T05:46:02.643Z,3.33
2023-03-02T05:48:30.971Z,5.05
2023-03-02T05:50:58.849Z,4.38
2023-03-02T05:53:25.869Z,7.55
2023-03-02T05:55:53.517Z,5.47
2023-03-02T05:58:21.544Z,4.00
2023-03-02T06:00:49.453Z,4.15
2023-03-02T06:03:16.938Z,4.03
2023-03-02T06:05:44.033Z,4.85
2023-03-02T06:08:11.102Z,5.53
2023-03-02T06:10:38.351Z,3.85
2023-03-02T06:13:05.359Z,4.65
2023-03-02T06:15:32.347Z,7.18
2023-03-02T06:17:59.526Z,5.43
2023-03-02T06:20:26.558Z,6.05
2023-03-02T06:22:53.634Z,6.45
2023-03-02T06:25:22.936Z,7.15
2023-03-02T06:27:53.950Z,5.03
2023-03-02T06:30:24.063Z,4.15
2023-03-02T06:32:51.298Z,5.78
2023-03-02T06:35:18.727Z,9.30
2023-03-02T06:37:45.880Z,6.47
2023-03-02T06:40:14.615Z,4.88
2023-03-02T06:42:43.208Z,6.80
2023-03-02T06:45:11.239Z,4.53
2023-03-02T06:47:38.570Z,7.45
2023-03-02T06:50:06.479Z,5.40
2023-03-02T06:52:33.811Z,6.18
2023-03-02T06:55:00.819Z,6.72
2023-03-02T06:57:34.075Z,5.60
2023-03-02T07:00:29.314Z,9.23
2023-03-02T07:02:57.008Z,8.05
2023-03-02T07:05:24.760Z,6.18
2023-03-02T07:07:52.547Z,8.02
2023-03-02T07:10:22.801Z,7.47
2023-03-02T07:12:50.337Z,6.50
2023-03-02T07:15:17.750Z,5.82
2023-03-02T07:17:47.857Z,8.68
2023-03-02T07:20:18.516Z,8.75
2023-03-02T07:22:45.752Z,7.75
2023-03-02T07:25:13.905Z,7.15
2023-03-02T07:27:41.738Z,10.02
2023-03-02T07:30:09.852Z,8.43
2023-03-02T07:32:36.930Z,6.93
2023-03-02T07:35:04.494Z,6.30
2023-03-02T07:37:32.962Z,6.88
2023-03-02T07:40:01.085Z,6.63
2023-03-02T07:42:30.029Z,6.70
2023-03-02T07:44:57.666Z,5.10
2023-03-02T07:47:25.927Z,5.68
2023-03-02T07:49:53.840Z,5.13
2023-03-02T07:52:21.432Z,5.55
2023-03-02T07:54:48.528Z,5.20
2023-03-02T07:57:16.554Z,7.00
2023-03-02T07:59:44.057Z,5.45
2023-03-02T08:02:15.289Z,6.72
2023-03-02T08:04:42.300Z,6.63
2023-03-02T08:07:09.698Z,6.90
2023-03-02T08:09:39.212Z,8.73
2023-03-02T08:12:06.332Z,6.47
2023-03-02T08:14:33.305Z,5.30
2023-03-02T08:17:00.340Z,7.10
2023-03-02T08:19:27.562Z,7.05
2023-03-02T08:21:54.720Z,5.43
2023-03-02T08:24:21.828Z,6.45
2023-03-02T08:26:49.422Z,5.60
2023-03-02T08:29:16.413Z,5.50
2023-03-02T08:31:43.486Z,5.20
2023-03-02T08:34:10.535Z,6.15
2023-03-02T08:36:37.480Z,6.00
2023-03-02T08:39:04.939Z,7.05
2023-03-02T08:41:32.223Z,5.43
2023-03-02T08:43:59.531Z,5.13
2023-03-02T08:46:26.630Z,7.72
2023-03-02T08:48:53.710Z,5.25
2023-03-02T08:51:25.781Z,8.02
2023-03-02T08:53:56.424Z,5.88
2023-03-02T08:58:51.138Z,6.70
2023-03-02T09:01:24.505Z,7.45
2023-03-02T09:03:51.782Z,5.82
2023-03-02T09:06:21.465Z,7.18
2023-03-02T09:08:49.941Z,7.25
2023-03-02T09:11:17.524Z,6.00
2023-03-02T09:13:44.595Z,7.32
2023-03-02T09:16:12.942Z,6.40
2023-03-02T09:18:40.373Z,8.18
2023-03-02T09:21:07.412Z,5.65
2023-03-02T09:23:36.744Z,5.10
2023-03-02T09:26:04.959Z,6.40
2023-03-02T09:28:32.050Z,7.07
2023-03-02T09:31:01.382Z,6.75
2023-03-02T09:33:29.572Z,7.65
2023-03-02T09:35:56.794Z,5.60
2023-03-02T09:38:24.392Z,5.18
2023-03-02T09:41:07.565Z,5.50
2023-03-02T09:43:52.835Z,4.63
2023-03-02T09:46:26.192Z,5.10
2023-03-02T09:49:33.214Z,6.30
2023-03-02T09:52:29.575Z,5.18
2023-03-02T09:55:01.089Z,5.70
2023-03-02T09:57:37.642Z,4.70
2023-03-02T10:00:19.481Z,4.72
2023-03-02T10:02:50.861Z,5.32
2023-03-02T10:05:24.320Z,4.45
2023-03-02T10:07:51.916Z,5.60
2023-03-02T10:10:18.889Z,3.55
2023-03-02T10:12:57.722Z,4.97
2023-03-02T10:15:40.611Z,4.60
2023-03-02T10:18:11.269Z,4.40
2023-03-02T10:20:47.540Z,4.55
2023-03-02T10:23:33.146Z,4.30
2023-03-02T10:26:42.091Z,3.70
2023-03-02T10:29:39.670Z,5.25
2023-03-02T10:32:21.607Z,5.07
2023-03-02T10:34:50.533Z,4.60
2023-03-02T10:37:21.750Z,4.32
2023-03-02T10:39:49.917Z,5.03
2023-03-02T10:42:31.141Z,3.58
2023-03-02T10:45:25.248Z,3.88
2023-03-02T10:48:04.187Z,4.05
2023-03-02T10:50:32.048Z,5.15
2023-03-02T10:53:00.716Z,5.00
2023-03-02T10:55:29.729Z,4.65
2023-03-02T10:58:31.831Z,3.60
2023-03-02T11:01:18.495Z,5.35
2023-03-02T11:04:00.714Z,4.88
2023-03-02T11:06:29.620Z,6.57
2023-03-02T11:09:04.549Z,8.00
2023-03-02T11:11:35.181Z,4.45
2023-03-02T11:14:14.757Z,6.57
2023-03-02T11:16:42.185Z,6.72
2023-03-02T11:19:29.660Z,5.90
2023-03-02T11:22:17.967Z,4.05
2023-03-02T11:24:56.392Z,3.92
2023-03-02T11:27:33.805Z,4.53
2023-03-02T11:30:17.032Z,4.53
2023-03-02T11:32:58.935Z,6.05
2023-03-02T11:35:31.870Z,3.65
2023-03-02T11:38:18.011Z,4.88
2023-03-02T11:40:55.542Z,4.82
2023-03-02T11:43:22.621Z,5.05
2023-03-02T11:46:00.600Z,3.80
2023-03-02T11:48:52.030Z,5.47
2023-03-02T11:51:50.059Z,3.50
2023-03-02T11:54:34.074Z,4.25
2023-03-02T11:57:01.918Z,4.00
2023-03-02T11:59:30.678Z,4.22
2023-03-02T12:02:00.833Z,3.88
2023-03-02T12:04:34.954Z,4.53
2023-03-02T12:07:15.663Z,5.97
2023-03-02T12:09:43.159Z,3.88
2023-03-02T12:12:25.365Z,3.72
2023-03-02T12:14:53.522Z,4.45
2023-03-02T12:17:26.757Z,4.72
2023-03-02T12:20:07.026Z,5.70
2023-03-02T12:22:37.892Z,5.05
2023-03-02T12:25:24.923Z,5.38
2023-03-02T12:27:54.802Z,5.75
2023-03-02T12:30:26.897Z,9.15
2023-03-02T12:33:18.410Z,4.70
2023-03-02T12:35:47.715Z,4.68
2023-03-02T12:38:32.751Z,4.93
2023-03-02T12:41:10.283Z,5.38
2023-03-02T12:43:38.776Z,3.33
2023-03-02T12:46:08.788Z,5.38
2023-03-02T12:48:46.309Z,4.13
2023-03-02T12:51:20.121Z,4.30
2023-03-02T12:53:47.500Z,4.28
2023-03-02T12:56:25.408Z,5.65
2023-03-02T12:58:55.050Z,4.20
2023-03-02T13:01:29.049Z,3.88
2023-03-02T13:04:00.166Z,8.20
2023-03-02T13:09:04.036Z,5.30
2023-03-02T13:11:35.367Z,4.53
2023-03-02T13:14:22.611Z,5.43
2023-03-02T13:17:04.929Z,3.85
2023-03-02T13:19:34.357Z,3.28
2023-03-02T13:22:11.312Z,4.13
2023-03-02T13:24:56.470Z,5.57
2023-03-02T13:27:25.172Z,4.82
2023-03-02T13:29:53.232Z,3.03
2023-03-02T13:32:26.122Z,4.28
2023-03-02T13:34:55.493Z,5.55
2023-03-02T13:37:26.243Z,4.65
2023-03-02T13:40:02.228Z,3.22
2023-03-02T13:42:41.276Z,7.32
2023-03-02T13:45:28.232Z,5.78
2023-03-02T13:47:57.311Z,4.43
2023-03-02T13:50:30.767Z,4.95
2023-03-02T13:53:05.692Z,4.30
2023-03-02T13:55:35.844Z,4.53
2023-03-02T13:58:13.908Z,6.45
2023-03-02T14:00:40.973Z,6.03
2023-03-02T14:03:37.064Z,5.60
2023-03-02T14:06:06.241Z,4.32
2023-03-02T14:08:33.334Z,4.70
2023-03-02T14:11:02.114Z,3.03
2023-03-02T14:13:35.078Z,7.95
2023-03-02T14:16:31.632Z,4.35
2023-03-02T14:18:58.887Z,7.05
2023-03-02T14:21:28.867Z,5.97
2023-03-02T14:23:56.039Z,5.40
2023-03-02T14:26:35.105Z,4.07
2023-03-02T14:29:26.820Z,5.95
2023-03-02T14:31:55.366Z,6.35
2023-03-02T14:34:25.910Z,5.35
2023-03-02T14:36:55.170Z,8.40
2023-03-02T14:39:29.327Z,5.60
2023-03-02T14:42:00.156Z,4.53
2023-03-02T14:44:27.740Z,3.88
2023-03-02T14:46:55.368Z,3.35
2023-03-02T14:49:25.827Z,8.13
2023-03-02T14:52:02.307Z,5.38
2023-03-02T14:54:38.589Z,4.38
2023-03-02T14:57:08.179Z,4.60
2023-03-02T14:59:35.583Z,3.83
2023-03-02T15:02:15.769Z,3.97
2023-03-02T15:04:53.731Z,8.68
2023-03-02T15:07:22.049Z,5.93
2023-03-02T15:09:49.193Z,10.48
2023-03-02T15:12:16.126Z,9.82
2023-03-02T15:14:43.237Z,8.23
2023-03-02T15:17:18.023Z,7.03
2023-03-02T15:20:14.425Z,5.55
2023-03-02T15:22:41.563Z,7.38
2023-03-02T15:25:08.854Z,5.82
2023-03-02T15:27:42.629Z,5.43
2023-03-02T15:30:13.606Z,7.38
2023-03-02T15:32:40.867Z,4.97
2023-03-02T15:35:08.383Z,4.57
2023-03-02T15:37:39.094Z,5.68
2023-03-02T15:40:06.985Z,6.78
2023-03-02T15:42:33.968Z,5.75
2023-03-02T15:45:01.070Z,7.97
2023-03-02T15:47:28.093Z,6.35
2023-03-02T15:49:55.053Z,9.23
2023-03-02T15:52:22.238Z,6.57
2023-03-02T15:54:49.349Z,5.25
2023-03-02T15:57:17.786Z,6.63
2023-03-02T15:59:45.264Z,6.65
2023-03-02T16:02:15.456Z,4.65
2023-03-02T16:04:42.930Z,8.65
2023-03-02T16:07:10.097Z,7.40
2023-03-02T16:09:38.186Z,4.10
2023-03-02T16:12:05.606Z,6.78
2023-03-02T16:14:34.475Z,5.00
2023-03-02T16:17:01.895Z,8.38
2023-03-02T16:19:29.292Z,12.13
2023-03-02T16:21:56.311Z,5.70
2023-03-02T16:24:23.658Z,3.95
2023-03-02T16:26:53.737Z,4.88
2023-03-02T16:29:21.432Z,4.15
2023-03-02T16:31:48.782Z,5.90
2023-03-02T16:34:22.132Z,5.20
2023-03-02T16:36:49.452Z,5.70
2023-03-02T16:39:16.466Z,5.28
2023-03-02T16:41:49.928Z,7.53
2023-03-02T16:44:17.398Z,6.63
2023-03-02T16:46:44.645Z,7.75
2023-03-02T16:49:14.200Z,5.50
2023-03-02T16:51:42.524Z,8.20
2023-03-02T16:54:10.567Z,7.63
2023-03-02T16:56:38.148Z,7.90
2023-03-02T16:59:05.092Z,8.32
2023-03-02T17:01:35.711Z,6.20
2023-03-02T17:04:05.728Z,7.22
2023-03-02T17:06:33.437Z,7.63
2023-03-02T17:09:02.713Z,6.10
2023-03-02T17:11:31.472Z,7.82
2023-03-02T17:13:58.542Z,7.22
2023-03-02T17:16:25.564Z,11.57
2023-03-02T17:18:52.631Z,9.13
2023-03-02T17:21:20.033Z,7.72
2023-03-02T17:23:48.321Z,11.00
2023-03-02T17:26:17.458Z,13.70
2023-03-02T17:28:44.572Z,9.25
2023-03-02T17:31:11.769Z,10.65
2023-03-02T17:33:39.414Z,8.73
2023-03-02T17:36:09.803Z,7.07
2023-03-02T17:38:37.017Z,9.38
2023-03-02T17:41:11.372Z,8.00
2023-03-02T17:43:40.690Z,6.70
2023-03-02T17:46:25.789Z,9.82
2023-03-02T17:48:56.364Z,8.43
2023-03-02T17:51:25.056Z,9.95
2023-03-02T17:53:54.709Z,14.52
2023-03-02T17:56:25.166Z,10.80
2023-03-02T17:58:58.213Z,9.10
2023-03-02T18:01:26.158Z,9.80
2023-03-02T18:03:53.418Z,8.88
2023-03-02T18:06:21.159Z,9.18
2023-03-02T18:08:49.363Z,7.70
2023-03-02T18:11:19.027Z,6.07
2023-03-02T18:13:46.595Z,5.53
2023-03-02T18:16:13.918Z,6.75
2023-03-02T18:18:41.141Z,7.00
2023-03-02T18:21:08.706Z,7.10
2023-03-02T18:23:35.979Z,8.30
2023-03-02T18:26:03.300Z,7.90
2023-03-02T18:28:30.763Z,5.70
2023-03-02T18:30:57.847Z,11.57
2023-03-02T18:33:30.261Z,7.25
2023-03-02T18:35:57.570Z,11.07
2023-03-02T18:38:31.024Z,12.32
2023-03-02T18:41:04.153Z,9.30
2023-03-02T18:43:34.924Z,8.48
2023-03-02T18:46:04.523Z,8.77
2023-03-02T18:48:32.855Z,7.10
2023-03-02T18:51:00.050Z,8.13
2023-03-02T18:53:27.353Z,9.43
2023-03-02T18:55:55.584Z,8.13
2023-03-02T18:58:24.255Z,8.43
2023-03-02T19:00:53.805Z,14.30
2023-03-02T19:03:21.092Z,7.60
2023-03-02T19:05:48.346Z,10.30
2023-03-02T19:08:15.430Z,8.82
2023-03-02T19:10:43.968Z,10.93
2023-03-02T19:13:11.829Z,10.50
2023-03-02T19:15:40.724Z,9.57
2023-03-02T19:18:08.617Z,11.45
2023-03-02T19:20:35.977Z,5.68
2023-03-02T19:23:03.150Z,8.15
2023-03-02T19:25:30.101Z,8.35
2023-03-02T19:27:57.080Z,9.35
2023-03-02T19:30:26.534Z,8.25
2023-03-02T19:32:54.444Z,10.43
2023-03-02T19:35:24.169Z,5.57
2023-03-02T19:37:51.502Z,10.77
2023-03-02T19:40:20.963Z,7.78
2023-03-02T19:42:50.765Z,7.93
2023-03-02T19:48:03.857Z,9.18
2023-03-02T19:50:31.388Z,8.15
2023-03-02T19:52:59.175Z,8.27
2023-03-02T19:55:29.600Z,7.97
2023-03-02T19:58:03.545Z,8.20
2023-03-02T20:00:33.479Z,6.18
2023-03-02T20:03:04.436Z,10.05
2023-03-02T20:05:31.437Z,9.55
2023-03-02T20:07:58.422Z,7.85
2023-03-02T20:10:32.120Z,8.35
2023-03-02T20:13:00.338Z,7.35
2023-03-02T20:15:32.522Z,9.25
2023-03-02T20:18:02.694Z,9.30
2023-03-02T20:20:30.955Z,8.02
2023-03-02T20:23:00.247Z,8.15
2023-03-02T20:25:28.763Z,4.85
2023-03-02T20:27:56.424Z,8.02
2023-03-02T20:30:30.112Z,5.05
2023-03-02T20:32:58.910Z,9.48
2023-03-02T20:35:30.264Z,6.28
2023-03-02T20:37:59.877Z,7.30
2023-03-02T20:40:27.439Z,10.00
2023-03-02T20:42:54.635Z,6.22
2023-03-02T20:45:22.471Z,9.35
2023-03-02T20:47:49.855Z,5.45
2023-03-02T20:50:24.244Z,8.10
2023-03-02T20:52:52.405Z,9.25
2023-03-02T20:55:20.568Z,12.25
2023-03-02T20:57:48.755Z,8.27
2023-03-02T21:00:20.940Z,7.13
2023-03-02T21:02:49.406Z,9.10
2023-03-02T21:05:19.871Z,8.05
2023-03-02T21:07:47.603Z,6.55
2023-03-02T21:10:18.012Z,8.80
2023-03-02T21:12:45.877Z,3.00
2023-03-02T21:15:13.512Z,8.55
2023-03-02T21:17:40.560Z,6.90
2023-03-02T21:20:08.578Z,4.07
2023-03-02T21:22:35.633Z,7.35
2023-03-02T21:25:02.773Z,3.55
2023-03-02T21:27:30.614Z,8.00
2023-03-02T21:29:58.007Z,9.02
2023-03-02T21:32:25.027Z,8.70
2023-03-02T21:34:52.024Z,8.77
2023-03-02T21:37:19.591Z,7.15
2023-03-02T21:39:46.605Z,8.30
2023-03-02T21:42:13.567Z,6.22
2023-03-02T21:44:40.721Z,7.60
2023-03-02T21:47:07.868Z,5.88
2023-03-02T21:49:34.915Z,7.85
2023-03-02T21:52:01.913Z,10.25
2023-03-02T21:54:28.987Z,8.52
2023-03-02T21:56:56.055Z,9.68
2023-03-02T21:59:23.071Z,8.88
2023-03-02T22:01:50.289Z,6.40
2023-03-02T22:04:17.538Z,6.35
2023-03-02T22:06:44.570Z,7.43
2023-03-02T22:09:11.968Z,8.85
2023-03-02T22:11:39.108Z,8.55
2023-03-02T22:14:15.091Z,11.13
2023-03-02T22:16:45.260Z,8.68
2023-03-02T22:19:44.905Z,6.97
2023-03-02T22:22:30.242Z,8.13
2023-03-02T22:24:57.367Z,9.48
2023-03-02T22:27:30.098Z,9.27
2023-03-02T22:29:59.560Z,8.65
2023-03-02T22:32:28.206Z,9.93
2023-03-02T22:35:16.434Z,13.02
2023-03-02T22:37:46.194Z,11.13
2023-03-02T22:40:34.401Z,9.82
2023-03-02T22:43:25.092Z,9.32
2023-03-02T22:46:00.466Z,9.65
2023-03-02T22:48:29.188Z,8.25
2023-03-02T22:50:56.316Z,14.73
2023-03-02T22:53:25.447Z,7.13
2023-03-02T22:56:03.593Z,8.88
2023-03-02T22:58:46.642Z,7.30
2023-03-02T23:01:29.673Z,10.18
2023-03-02T23:04:21.162Z,6.82
2023-03-02T23:06:56.652Z,9.40
2023-03-02T23:09:26.350Z,6.53
2023-03-02T23:11:56.687Z,9.32
2023-03-02T23:14:23.557Z,7.57
2023-03-02T23:16:57.878Z,9.43
2023-03-02T23:19:30.494Z,11.52
2023-03-02T23:21:58.378Z,10.48
2023-03-02T23:24:25.669Z,10.85
2023-03-02T23:26:53.453Z,8.32
2023-03-02T23:29:21.546Z,14.65
2023-03-02T23:31:49.892Z,9.35
2023-03-02T23:34:17.138Z,8.93
2023-03-02T23:36:44.148Z,11.88
2023-03-02T23:39:11.377Z,8.90
2023-03-02T23:41:39.123Z,10.18
2023-03-02T23:44:07.499Z,7.57
2023-03-02T23:46:34.955Z,9.63
2023-03-02T23:49:01.965Z,13.75
2023-03-02T23:51:29.020Z,10.48
2023-03-02T23:53:56.369Z,12.68
2023-03-02T23:56:23.479Z,9.50
2023-03-02T23:58:50.848Z,11.73
